Time;durP1;ratioP1;P1;durP2;ratioP2;P2;SDS_P1;SDS_P2;PMS_P1;PMS_P2;Temp;Humidity;BMP_temperature;BMP_pressure;BME280_temperature;BME280_humidity;BME280_pressure;Samples;Min_cycle;Max_cycle;Signal;HPM_P1;HPM_P2
2023/05/17 00:01:26;;;;;;;8.35;5.63;;;11.80;99.90;;;;;;4422043;28;657786;-73
2023/05/17 00:04:13;;;;;;;9.13;6.20;;;11.80;99.90;;;;;;4439873;28;657931;-73
2023/05/17 00:07:02;;;;;;;9.77;6.27;;;11.80;99.90;;;;;;4422222;28;657985;-74
2023/05/17 00:09:49;;;;;;;10.63;6.78;;;11.80;99.90;;;;;;4446473;28;657743;-73
2023/05/17 00:12:36;;;;;;;16.33;6.60;;;11.80;99.90;;;;;;4424493;28;659215;-73
2023/05/17 00:15:23;;;;;;;8.10;5.37;;;11.80;99.90;;;;;;4444244;28;659296;-73
2023/05/17 00:18:11;;;;;;;7.17;5.00;;;11.80;99.90;;;;;;4427528;28;657410;-73
2023/05/17 00:20:58;;;;;;;9.37;6.03;;;11.80;99.90;;;;;;4446326;28;658082;-73
2023/05/17 00:23:47;;;;;;;9.63;4.77;;;11.70;99.90;;;;;;4424942;28;657868;-74
2023/05/17 00:26:34;;;;;;;7.27;4.60;;;11.70;99.90;;;;;;4447779;28;657104;-73
2023/05/17 00:29:21;;;;;;;6.63;4.40;;;11.70;99.90;;;;;;4421322;28;657541;-74
2023/05/17 00:32:08;;;;;;;6.30;4.33;;;11.70;99.90;;;;;;4446547;28;658136;-73
2023/05/17 00:34:56;;;;;;;10.00;5.17;;;11.70;99.90;;;;;;4425519;28;658484;-74
2023/05/17 00:37:46;;;;;;;23.97;5.80;;;11.70;99.90;;;;;;4445993;28;659425;-74
2023/05/17 00:40:35;;;;;;;15.73;5.07;;;11.70;99.90;;;;;;4423581;28;659923;-73
2023/05/17 00:43:22;;;;;;;53.63;9.77;;;11.70;99.90;;;;;;4418693;28;659974;-72
2023/05/17 00:46:09;;;;;;;13.90;4.83;;;11.70;99.90;;;;;;4449905;28;658520;-75
2023/05/17 00:48:56;;;;;;;6.97;3.67;;;11.60;99.90;;;;;;4422658;28;658877;-72
2023/05/17 00:51:44;;;;;;;5.03;3.30;;;11.60;99.90;;;;;;4444971;28;658714;-74
2023/05/17 00:54:31;;;;;;;5.27;3.63;;;11.70;99.90;;;;;;4419846;28;657497;-72
2023/05/17 00:57:19;;;;;;;4.10;3.07;;;11.60;99.90;;;;;;4445636;28;658390;-73
2023/05/17 01:00:08;;;;;;;9.90;3.80;;;11.70;99.90;;;;;;4426459;28;658156;-72
2023/05/17 01:02:55;;;;;;;9.10;4.00;;;11.60;99.90;;;;;;4422596;28;657845;-74
2023/05/17 01:05:42;;;;;;;3.33;2.97;;;11.60;99.90;;;;;;4445398;28;658727;-74
2023/05/17 01:08:30;;;;;;;3.43;2.93;;;11.60;99.90;;;;;;4442664;28;657678;-74
2023/05/17 01:11:22;;;;;;;8.00;3.53;;;11.60;99.90;;;;;;4449486;28;657539;-73
2023/05/17 01:14:18;;;;;;;11.33;3.40;;;11.50;99.90;;;;;;4421570;28;658822;-73
2023/05/17 01:17:07;;;;;;;9.33;3.80;;;11.50;99.90;;;;;;4416422;28;658439;-74
2023/05/17 01:19:58;;;;;;;3.10;2.80;;;11.50;99.90;;;;;;4452294;28;657588;-75
2023/05/17 01:22:51;;;;;;;3.67;2.80;;;11.50;99.90;;;;;;4417621;28;658029;-74
2023/05/17 01:25:49;;;;;;;29.10;6.87;;;11.50;99.90;;;;;;4428798;28;657722;-74
2023/05/17 01:28:39;;;;;;;3.07;2.50;;;11.40;99.90;;;;;;4420441;28;659957;-74
2023/05/17 01:31:26;;;;;;;7.57;2.93;;;11.40;99.90;;;;;;4421777;28;657642;-73
2023/05/17 01:34:13;;;;;;;5.93;3.13;;;11.40;99.90;;;;;;4450676;28;658185;-74
2023/05/17 01:37:00;;;;;;;9.00;3.60;;;11.40;99.90;;;;;;4426994;28;657445;-75
2023/05/17 01:39:47;;;;;;;6.17;2.80;;;11.40;99.90;;;;;;4447798;28;657205;-75
2023/05/17 01:42:35;;;;;;;2.90;2.50;;;11.30;99.90;;;;;;4449213;28;657822;-74
2023/05/17 01:45:24;;;;;;;5.30;3.07;;;11.30;99.90;;;;;;4429229;28;658330;-74
2023/05/17 01:48:15;;;;;;;4.60;3.20;;;11.30;99.90;;;;;;4430454;28;657637;-73
2023/05/17 01:51:03;;;;;;;3.37;2.90;;;11.30;99.90;;;;;;4423147;28;659792;-73
2023/05/17 01:53:55;;;;;;;3.30;2.90;;;11.20;99.90;;;;;;4432533;28;657770;-74
2023/05/17 01:56:44;;;;;;;13.43;4.23;;;11.20;99.90;;;;;;4422926;28;658083;-75
2023/05/17 01:59:31;;;;;;;5.33;3.40;;;11.10;99.90;;;;;;4422234;28;658942;-74
2023/05/17 02:02:21;;;;;;;12.87;4.07;;;11.10;99.90;;;;;;4449916;28;658002;-73
2023/05/17 02:05:09;;;;;;;6.07;3.57;;;11.10;99.90;;;;;;4415319;28;658739;-74
2023/05/17 02:07:56;;;;;;;4.40;2.90;;;11.20;99.90;;;;;;4426939;28;658451;-74
2023/05/17 02:10:43;;;;;;;8.43;3.10;;;11.10;99.90;;;;;;4444220;28;659063;-73
2023/05/17 02:13:30;;;;;;;6.57;4.00;;;11.10;99.90;;;;;;4424147;28;657681;-74
2023/05/17 02:16:17;;;;;;;5.23;3.40;;;11.10;99.90;;;;;;4440178;28;658611;-73
2023/05/17 02:19:07;;;;;;;4.47;3.60;;;11.10;99.90;;;;;;4423870;28;657693;-75
2023/05/17 02:21:55;;;;;;;5.47;3.40;;;11.10;99.90;;;;;;4222447;28;657375;-75
2023/05/17 02:24:42;;;;;;;6.90;3.27;;;11.10;99.90;;;;;;4237644;28;657586;-75
2023/05/17 02:27:30;;;;;;;3.80;3.00;;;11.10;99.90;;;;;;4394140;28;657266;-74
2023/05/17 02:30:20;;;;;;;6.67;3.50;;;11.10;99.90;;;;;;4410696;28;658535;-74
2023/05/17 02:33:08;;;;;;;6.50;3.57;;;11.20;99.90;;;;;;4378386;28;658526;-74
2023/05/17 02:35:57;;;;;;;5.97;3.10;;;11.10;99.90;;;;;;4398276;28;658057;-74
2023/05/17 02:38:44;;;;;;;4.23;3.37;;;11.10;99.90;;;;;;4412430;28;657584;-73
2023/05/17 02:41:31;;;;;;;3.27;2.97;;;11.10;99.90;;;;;;4393362;28;658057;-74
2023/05/17 02:44:18;;;;;;;5.17;3.03;;;11.10;99.90;;;;;;4414403;28;658982;-74
2023/05/17 02:47:06;;;;;;;3.97;3.13;;;11.10;99.90;;;;;;4387843;28;657825;-74
2023/05/17 02:49:53;;;;;;;5.20;4.03;;;11.10;99.90;;;;;;4413271;28;658049;-73
2023/05/17 02:52:42;;;;;;;5.72;4.00;;;11.10;99.90;;;;;;4393624;28;657525;-75
2023/05/17 02:55:29;;;;;;;5.50;4.07;;;11.10;99.90;;;;;;4417220;28;657473;-73
2023/05/17 02:58:16;;;;;;;5.10;4.00;;;11.10;99.90;;;;;;4389062;28;658277;-73
2023/05/17 03:01:03;;;;;;;5.70;4.30;;;11.10;99.90;;;;;;4409863;28;658580;-72
2023/05/17 03:03:51;;;;;;;4.40;3.73;;;11.10;99.90;;;;;;4391331;28;657723;-73
2023/05/17 03:06:38;;;;;;;6.43;4.37;;;11.10;99.90;;;;;;4409750;28;657474;-73
2023/05/17 03:09:28;;;;;;;9.00;4.72;;;11.10;99.90;;;;;;4396888;28;658016;-72
2023/05/17 03:12:15;;;;;;;6.40;4.47;;;11.00;99.90;;;;;;4388620;28;658641;-73
2023/05/17 03:15:03;;;;;;;6.87;5.30;;;11.10;99.90;;;;;;4407343;28;658409;-72
2023/05/17 03:17:50;;;;;;;4.93;3.87;;;11.00;99.90;;;;;;4403976;28;657444;-73
2023/05/17 03:20:37;;;;;;;11.00;4.83;;;11.00;99.90;;;;;;4432807;28;658475;-73
2023/05/17 03:23:24;;;;;;;7.43;4.63;;;11.00;99.90;;;;;;4442071;28;658221;-74
2023/05/17 03:26:13;;;;;;;6.13;4.10;;;11.00;99.90;;;;;;4423166;28;657672;-73
2023/05/17 03:29:00;;;;;;;4.50;4.00;;;11.00;99.90;;;;;;4421764;28;657924;-75
2023/05/17 03:31:47;;;;;;;7.57;4.53;;;11.00;99.90;;;;;;4444370;28;658734;-73
2023/05/17 03:34:35;;;;;;;12.80;5.20;;;11.00;99.90;;;;;;4435932;28;658165;-74
2023/05/17 03:37:22;;;;;;;9.70;4.77;;;11.10;99.90;;;;;;4440961;28;659781;-73
2023/05/17 03:40:11;;;;;;;10.43;5.40;;;11.00;99.90;;;;;;4440782;28;657597;-74
2023/05/17 03:43:00;;;;;;;5.50;4.07;;;11.00;99.90;;;;;;4445515;28;659048;-74
2023/05/17 03:45:47;;;;;;;6.33;4.17;;;11.00;99.90;;;;;;4423100;28;658844;-73
2023/05/17 03:48:34;;;;;;;6.10;4.07;;;11.10;99.90;;;;;;4448187;28;657696;-73
2023/05/17 03:51:21;;;;;;;6.50;4.30;;;11.10;99.90;;;;;;4422610;28;657910;-73
2023/05/17 03:54:08;;;;;;;4.80;3.90;;;11.10;99.90;;;;;;4441142;28;658110;-73
2023/05/17 03:56:56;;;;;;;4.40;4.00;;;11.00;99.90;;;;;;4424285;28;657453;-74
2023/05/17 03:59:44;;;;;;;5.73;3.73;;;11.00;99.90;;;;;;4452536;28;658267;-74
2023/05/17 04:02:31;;;;;;;4.80;3.77;;;11.00;99.90;;;;;;4425562;28;658650;-73
2023/05/17 04:05:19;;;;;;;5.73;3.93;;;11.10;99.90;;;;;;4437009;28;658786;-75
2023/05/17 04:08:06;;;;;;;6.73;3.90;;;11.10;99.90;;;;;;4420980;28;657831;-75
2023/05/17 04:10:53;;;;;;;4.30;3.70;;;11.10;99.90;;;;;;4444857;28;659328;-73
2023/05/17 04:13:41;;;;;;;9.23;4.50;;;11.10;99.90;;;;;;4424961;28;657693;-74
2023/05/17 04:16:29;;;;;;;11.07;5.67;;;11.10;99.90;;;;;;4450591;28;658364;-74
2023/05/17 04:19:16;;;;;;;7.13;4.80;;;11.10;99.90;;;;;;4419383;28;658766;-74
2023/05/17 04:22:04;;;;;;;6.60;4.40;;;11.10;99.90;;;;;;4445281;28;657699;-74
2023/05/17 04:24:51;;;;;;;9.37;4.67;;;11.20;99.90;;;;;;4425593;28;657511;-74
2023/05/17 04:27:38;;;;;;;5.83;4.13;;;11.20;99.90;;;;;;4446971;28;658541;-75
2023/05/17 04:30:25;;;;;;;5.40;3.93;;;11.20;99.90;;;;;;4425903;28;657570;-75
2023/05/17 04:33:14;;;;;;;8.73;4.80;;;11.20;99.90;;;;;;4441700;28;658259;-75
2023/05/17 04:36:01;;;;;;;9.43;3.80;;;11.30;99.90;;;;;;4424721;28;657967;-75
2023/05/17 04:38:48;;;;;;;4.57;3.97;;;11.30;99.90;;;;;;4442869;28;658543;-73
2023/05/17 04:41:36;;;;;;;6.10;4.00;;;11.30;99.90;;;;;;4423425;28;658363;-74
2023/05/17 04:44:23;;;;;;;4.03;3.50;;;11.30;99.90;;;;;;4442904;28;658479;-74
2023/05/17 04:47:10;;;;;;;3.70;3.33;;;11.30;99.90;;;;;;4422879;28;657861;-74
2023/05/17 04:50:00;;;;;;;3.67;3.33;;;11.30;99.90;;;;;;4443007;28;658674;-73
2023/05/17 04:52:47;;;;;;;3.85;3.53;;;11.20;99.90;;;;;;4419018;28;658331;-73
2023/05/17 04:55:34;;;;;;;3.40;3.10;;;11.20;99.90;;;;;;4446085;28;657428;-73
2023/05/17 04:58:23;;;;;;;4.53;3.60;;;11.20;99.90;;;;;;4421686;28;657777;-73
2023/05/17 05:01:10;;;;;;;5.00;3.37;;;11.30;99.90;;;;;;4432949;28;658446;-74
2023/05/17 05:03:58;;;;;;;3.57;3.27;;;11.30;99.90;;;;;;4441722;28;658842;-74
2023/05/17 05:06:47;;;;;;;2.75;2.55;;;11.30;99.90;;;;;;4420215;28;657495;-73
2023/05/17 05:09:34;;;;;;;4.27;2.50;;;11.30;99.90;;;;;;4445804;28;657423;-72
2023/05/17 05:12:21;;;;;;;3.03;2.43;;;11.30;99.90;;;;;;4419432;28;657730;-72
2023/05/17 05:15:09;;;;;;;2.47;2.23;;;11.40;99.90;;;;;;4440933;28;658851;-73
2023/05/17 05:17:57;;;;;;;2.30;2.10;;;11.40;99.90;;;;;;4419698;28;658441;-72
2023/05/17 05:20:44;;;;;;;2.10;2.00;;;11.40;99.90;;;;;;4440104;28;658182;-73
2023/05/17 05:23:32;;;;;;;3.10;1.80;;;11.50;99.90;;;;;;4425294;28;657500;-72
2023/05/17 05:26:20;;;;;;;5.50;2.10;;;11.50;99.90;;;;;;4438948;28;657584;-73
2023/05/17 05:29:07;;;;;;;3.53;2.50;;;11.40;99.90;;;;;;4448677;28;658100;-72
2023/05/17 05:31:55;;;;;;;2.47;2.17;;;11.50;99.90;;;;;;4442951;28;657718;-72
2023/05/17 05:34:42;;;;;;;3.77;2.37;;;11.50;99.90;;;;;;4419572;28;658960;-72
2023/05/17 05:37:29;;;;;;;2.07;1.93;;;11.50;99.90;;;;;;4438586;28;658330;-72
2023/05/17 05:40:18;;;;;;;2.20;2.00;;;11.50;99.90;;;;;;4421343;28;657667;-71
2023/05/17 05:43:05;;;;;;;2.53;2.13;;;11.50;99.90;;;;;;4426902;28;657852;-73
2023/05/17 05:45:52;;;;;;;3.87;1.93;;;11.60;99.90;;;;;;4444112;28;658426;-71
2023/05/17 05:48:40;;;;;;;2.30;2.10;;;11.70;99.90;;;;;;4437648;28;657795;-72
2023/05/17 05:51:28;;;;;;;2.63;2.13;;;11.60;99.90;;;;;;4439405;28;657696;-70
2023/05/17 05:54:15;;;;;;;3.57;1.93;;;11.70;99.90;;;;;;4437677;28;658402;-72
2023/05/17 05:57:05;;;;;;;2.33;1.87;;;11.60;99.90;;;;;;4445936;28;658472;-70
2023/05/17 05:59:52;;;;;;;2.50;2.30;;;11.70;99.90;;;;;;4425143;28;658221;-71
2023/05/17 06:02:40;;;;;;;2.83;2.30;;;11.70;99.90;;;;;;4439931;28;658340;-71
2023/05/17 06:05:27;;;;;;;2.20;2.00;;;11.70;99.90;;;;;;4420171;28;657950;-71
2023/05/17 06:08:14;;;;;;;4.17;2.33;;;11.70;99.90;;;;;;4442967;28;657676;-72
2023/05/17 06:11:01;;;;;;;2.57;2.20;;;11.70;99.90;;;;;;4419547;28;657538;-72
2023/05/17 06:13:50;;;;;;;2.60;1.93;;;11.70;99.90;;;;;;4443282;28;657323;-72
2023/05/17 06:16:37;;;;;;;3.67;2.40;;;11.70;99.90;;;;;;4422953;28;660085;-72
2023/05/17 06:19:24;;;;;;;2.77;2.30;;;11.70;99.90;;;;;;4439951;28;657463;-71
2023/05/17 06:22:12;;;;;;;2.53;2.30;;;11.70;99.90;;;;;;4421852;28;657654;-72
2023/05/17 06:24:59;;;;;;;2.37;2.17;;;11.70;99.90;;;;;;4444479;28;657909;-69
2023/05/17 06:27:46;;;;;;;4.33;2.57;;;11.70;99.90;;;;;;4423867;28;657598;-72
2023/05/17 06:30:35;;;;;;;4.00;2.40;;;11.60;99.90;;;;;;4446674;28;658375;-71
2023/05/17 06:33:22;;;;;;;3.63;2.47;;;11.70;99.90;;;;;;4423602;28;659000;-71
2023/05/17 06:36:09;;;;;;;6.10;2.73;;;11.70;99.90;;;;;;4442547;28;658411;-71
2023/05/17 06:38:57;;;;;;;4.10;2.80;;;11.60;99.90;;;;;;4426746;28;657538;-72
2023/05/17 06:41:44;;;;;;;4.67;2.80;;;11.60;99.90;;;;;;4449946;28;657450;-71
2023/05/17 06:44:31;;;;;;;5.70;2.87;;;11.60;99.90;;;;;;4431083;28;658125;-72
2023/05/17 06:47:20;;;;;;;7.30;2.70;;;11.60;99.90;;;;;;4438960;28;658772;-70
2023/05/17 06:50:08;;;;;;;3.13;2.20;;;11.60;99.90;;;;;;4421501;28;658984;-71
2023/05/17 06:52:55;;;;;;;3.47;2.27;;;11.50;99.90;;;;;;4424578;28;658003;-72
2023/05/17 06:55:42;;;;;;;4.53;2.40;;;11.50;99.90;;;;;;4440600;28;659028;-71
2023/05/17 06:58:31;;;;;;;3.70;2.37;;;11.50;99.90;;;;;;4433598;28;658054;-72
2023/05/17 07:01:19;;;;;;;4.88;2.63;;;11.50;99.90;;;;;;4444290;28;658229;-71
2023/05/17 07:04:07;;;;;;;3.70;2.30;;;11.50;99.90;;;;;;4424880;28;657802;-71
2023/05/17 07:06:55;;;;;;;4.63;2.37;;;11.60;99.90;;;;;;4448378;28;657819;-72
2023/05/17 07:09:42;;;;;;;3.40;2.30;;;11.50;99.90;;;;;;4449389;28;658404;-71
2023/05/17 07:12:29;;;;;;;5.57;2.57;;;11.50;99.90;;;;;;4446332;28;658112;-71
2023/05/17 07:15:17;;;;;;;5.87;2.90;;;11.50;99.90;;;;;;4424973;28;658398;-71
2023/05/17 07:18:04;;;;;;;4.68;2.70;;;11.50;99.90;;;;;;4446885;28;657957;-70
2023/05/17 07:20:53;;;;;;;5.23;2.70;;;11.50;99.90;;;;;;4424405;28;658479;-71
2023/05/17 07:23:40;;;;;;;3.93;2.40;;;11.50;99.90;;;;;;4423946;28;657384;-72
2023/05/17 07:26:27;;;;;;;6.43;2.43;;;11.50;99.90;;;;;;4446672;28;657660;-71
2023/05/17 07:29:15;;;;;;;4.03;2.20;;;11.50;99.90;;;;;;4435073;28;657557;-72
2023/05/17 07:32:02;;;;;;;3.80;2.80;;;11.50;99.90;;;;;;4447615;28;658653;-69
2023/05/17 07:34:50;;;;;;;3.60;2.80;;;11.50;99.90;;;;;;4438465;28;657540;-72
2023/05/17 07:37:39;;;;;;;7.67;3.20;;;11.40;99.90;;;;;;4440814;28;657383;-70
2023/05/17 07:40:26;;;;;;;5.47;3.63;;;11.40;99.90;;;;;;4427612;28;658003;-70
2023/05/17 07:43:13;;;;;;;7.30;3.83;;;11.40;99.90;;;;;;4443089;28;658511;-70
2023/05/17 07:46:00;;;;;;;5.10;4.00;;;11.20;99.90;;;;;;4422337;28;657609;-71
2023/05/17 07:48:47;;;;;;;7.63;4.17;;;11.20;99.90;;;;;;4441242;28;658844;-70
2023/05/17 07:51:35;;;;;;;7.53;4.43;;;11.20;99.90;;;;;;4437383;28;658659;-72
2023/05/17 07:54:25;;;;;;;8.37;4.70;;;11.00;99.90;;;;;;4443173;28;657763;-71
2023/05/17 07:57:12;;;;;;;8.07;4.47;;;11.00;99.90;;;;;;4424547;28;658226;-71
2023/05/17 08:00:00;;;;;;;8.40;4.60;;;10.90;99.90;;;;;;4440151;28;657630;-72
2023/05/17 08:02:47;;;;;;;9.07;5.63;;;11.00;99.90;;;;;;4445942;28;658162;-71
2023/05/17 08:05:35;;;;;;;11.70;5.63;;;10.90;99.90;;;;;;4442467;28;658436;-71
2023/05/17 08:08:22;;;;;;;12.93;5.37;;;10.90;99.90;;;;;;4417441;28;659548;-71
2023/05/17 08:11:11;;;;;;;7.07;4.77;;;10.90;99.90;;;;;;4443338;28;658983;-70
2023/05/17 08:13:58;;;;;;;11.40;5.70;;;10.90;99.90;;;;;;4419755;28;658458;-71
2023/05/17 08:16:46;;;;;;;6.53;5.07;;;10.80;99.90;;;;;;4420531;28;658642;-71
2023/05/17 08:19:33;;;;;;;7.40;5.27;;;10.90;99.90;;;;;;4441257;28;657779;-70
2023/05/17 08:22:20;;;;;;;7.00;5.10;;;10.80;99.90;;;;;;4420637;28;657583;-71
2023/05/17 08:25:08;;;;;;;7.80;5.50;;;10.90;99.90;;;;;;4440691;28;658962;-72
2023/05/17 08:27:57;;;;;;;6.40;5.23;;;10.90;99.90;;;;;;4301925;28;657630;-72
2023/05/17 08:30:44;;;;;;;6.23;4.97;;;10.80;99.90;;;;;;4303779;28;657439;-72
2023/05/17 08:33:31;;;;;;;6.50;4.47;;;10.90;99.90;;;;;;4290654;28;657655;-72
2023/05/17 08:36:19;;;;;;;5.37;4.87;;;10.90;99.90;;;;;;4418744;28;657761;-70
2023/05/17 08:39:07;;;;;;;6.37;4.90;;;10.90;99.90;;;;;;4421132;28;658015;-69
2023/05/17 08:41:58;;;;;;;5.80;4.60;;;10.80;99.90;;;;;;4439214;28;659107;-70
2023/05/17 08:44:47;;;;;;;5.20;4.60;;;10.80;99.90;;;;;;4405231;28;657842;-72
2023/05/17 08:47:36;;;;;;;7.50;5.23;;;10.60;99.90;;;;;;4432161;28;657684;-69
2023/05/17 08:50:24;;;;;;;7.27;5.37;;;10.60;99.90;;;;;;4419441;28;658349;-71
2023/05/17 08:53:11;;;;;;;8.37;6.10;;;10.50;99.90;;;;;;4414973;28;657542;-71
2023/05/17 08:55:59;;;;;;;11.73;5.93;;;10.50;99.90;;;;;;4437875;28;657870;-70
2023/05/17 08:58:48;;;;;;;12.23;6.60;;;10.40;99.90;;;;;;4419522;28;659412;-70
2023/05/17 09:01:37;;;;;;;11.53;7.53;;;10.50;99.90;;;;;;4427574;28;658754;-71
2023/05/17 09:04:24;;;;;;;10.73;8.07;;;10.50;99.90;;;;;;4440039;28;659401;-70
2023/05/17 09:07:11;;;;;;;10.97;8.03;;;10.50;99.90;;;;;;4421393;28;658659;-70
2023/05/17 09:09:59;;;;;;;10.07;7.27;;;10.50;99.90;;;;;;4436177;28;659392;-69
2023/05/17 09:12:46;;;;;;;12.73;7.63;;;10.20;99.90;;;;;;4421897;28;659604;-70
2023/05/17 09:15:33;;;;;;;11.97;7.83;;;10.20;99.90;;;;;;4444840;28;660003;-69
2023/05/17 09:18:31;;;;;;;11.20;8.57;;;10.20;99.90;;;;;;4420198;28;658736;-69
2023/05/17 09:21:18;;;;;;;10.67;8.13;;;10.20;99.90;;;;;;4416444;28;659674;-70
2023/05/17 09:24:05;;;;;;;13.33;7.70;;;10.00;99.90;;;;;;4415990;28;658810;-70
2023/05/17 09:26:53;;;;;;;14.50;8.30;;;10.00;99.90;;;;;;4440097;28;660114;-70
2023/05/17 09:29:41;;;;;;;9.23;7.30;;;10.00;99.90;;;;;;4424890;28;659007;-71
2023/05/17 09:32:28;;;;;;;10.77;8.00;;;9.90;99.90;;;;;;4444980;28;658976;-70
2023/05/17 09:35:17;;;;;;;9.30;7.43;;;10.00;99.90;;;;;;4422881;28;657998;-71
2023/05/17 09:38:06;;;;;;;9.97;7.50;;;10.00;99.90;;;;;;4446633;28;658421;-70
2023/05/17 09:40:53;;;;;;;12.83;7.97;;;10.00;99.90;;;;;;4425228;28;658045;-69
2023/05/17 09:43:40;;;;;;;9.33;6.10;;;10.00;99.90;;;;;;4424353;28;659194;-70
2023/05/17 09:46:28;;;;;;;8.50;6.57;;;9.90;99.90;;;;;;4444179;28;658968;-70
2023/05/17 09:49:15;;;;;;;12.30;6.30;;;9.90;99.90;;;;;;4435590;28;657109;-71
2023/05/17 09:52:07;;;;;;;8.37;6.70;;;10.00;99.90;;;;;;4442812;28;657691;-69
2023/05/17 09:54:55;;;;;;;8.10;6.60;;;10.10;99.90;;;;;;4420567;28;657845;-70
2023/05/17 09:57:42;;;;;;;8.20;5.80;;;10.10;99.90;;;;;;4423969;28;658837;-70
2023/05/17 10:00:30;;;;;;;8.63;6.37;;;10.00;99.90;;;;;;4441564;28;657309;-70
2023/05/17 10:03:17;;;;;;;7.77;5.97;;;10.10;99.90;;;;;;4416648;28;659112;-70
2023/05/17 10:06:08;;;;;;;8.73;6.00;;;10.10;99.90;;;;;;4441427;28;658314;-72
2023/05/17 10:08:58;;;;;;;6.87;5.47;;;10.00;99.90;;;;;;4424977;28;658973;-70
2023/05/17 10:11:46;;;;;;;7.87;5.30;;;10.00;99.90;;;;;;4420027;28;658153;-70
2023/05/17 10:14:33;;;;;;;7.77;5.07;;;10.10;99.90;;;;;;4441962;28;657939;-70
2023/05/17 10:17:21;;;;;;;6.43;5.10;;;10.10;99.90;;;;;;4420973;28;657569;-69
2023/05/17 10:20:09;;;;;;;6.77;4.63;;;10.10;99.90;;;;;;4446294;28;659144;-70
2023/05/17 10:22:57;;;;;;;5.40;4.50;;;10.10;99.90;;;;;;4413444;28;659118;-74
2023/05/17 10:25:45;;;;;;;6.40;4.77;;;10.20;99.90;;;;;;4432837;28;657912;-76
2023/05/17 10:28:33;;;;;;;5.33;4.47;;;10.30;99.90;;;;;;4414759;28;659088;-73
2023/05/17 10:31:20;;;;;;;5.27;4.17;;;10.40;99.90;;;;;;4428707;28;658181;-73
2023/05/17 10:34:07;;;;;;;6.07;4.43;;;10.40;99.90;;;;;;4447544;28;659285;-76
2023/05/17 10:36:56;;;;;;;6.17;5.30;;;10.20;99.90;;;;;;4436972;28;658511;-73
2023/05/17 10:39:45;;;;;;;8.20;5.37;;;10.20;99.90;;;;;;4440097;28;657974;-75
2023/05/17 10:42:34;;;;;;;4.80;4.30;;;10.30;99.90;;;;;;4417511;28;658878;-72
2023/05/17 10:45:22;;;;;;;7.77;5.03;;;10.30;99.90;;;;;;4421446;28;657543;-75
2023/05/17 10:48:09;;;;;;;8.17;4.40;;;10.40;99.90;;;;;;4446118;28;657663;-75
2023/05/17 10:50:56;;;;;;;6.43;4.88;;;10.30;99.90;;;;;;4424803;28;657380;-77
2023/05/17 10:54:04;;;;;;;7.57;5.10;;;10.20;99.90;;;;;;4441251;28;657754;-76
2023/05/17 10:56:52;;;;;;;6.00;5.03;;;10.10;99.90;;;;;;4395342;28;658723;-75
2023/05/17 10:59:58;;;;;;;6.73;5.70;;;10.10;99.90;;;;;;4443585;28;657644;-75
2023/05/17 11:02:47;;;;;;;8.50;5.83;;;10.10;99.90;;;;;;4433665;28;657541;-74
2023/05/17 11:05:34;;;;;;;9.00;5.97;;;10.10;99.90;;;;;;4445185;28;657504;-75
2023/05/17 11:08:21;;;;;;;9.27;5.90;;;10.10;99.90;;;;;;4418945;28;657587;-74
2023/05/17 11:11:10;;;;;;;8.27;6.30;;;10.10;99.90;;;;;;4443450;28;657405;-75
2023/05/17 11:13:58;;;;;;;10.87;6.00;;;10.00;99.90;;;;;;4419374;28;658896;-74
2023/05/17 11:16:47;;;;;;;10.33;6.43;;;10.00;99.90;;;;;;4420171;28;659603;-74
2023/05/17 11:19:34;;;;;;;10.63;6.60;;;10.00;99.90;;;;;;4437614;28;659198;-75
2023/05/17 11:22:22;;;;;;;8.07;6.40;;;9.90;99.90;;;;;;4412865;28;659857;-75
2023/05/17 11:25:11;;;;;;;7.43;5.37;;;10.00;99.90;;;;;;4435842;28;657260;-73
2023/05/17 11:27:59;;;;;;;6.67;5.33;;;10.00;99.90;;;;;;4442758;28;657907;-74
2023/05/17 11:30:50;;;;;;;8.20;5.70;;;10.00;99.90;;;;;;4414342;28;658556;-75
2023/05/17 11:33:40;;;;;;;7.50;5.87;;;10.00;99.90;;;;;;4415577;28;658806;-72
2023/05/17 11:36:27;;;;;;;9.53;5.93;;;9.90;99.90;;;;;;4414274;28;658720;-76
2023/05/17 11:39:16;;;;;;;8.03;6.03;;;9.90;99.90;;;;;;4439342;28;656541;-75
2023/05/17 11:42:03;;;;;;;9.27;5.60;;;9.90;99.90;;;;;;4420479;28;657438;-75
2023/05/17 11:44:50;;;;;;;9.13;5.50;;;9.90;99.90;;;;;;4420743;28;656875;-74
2023/05/17 11:47:40;;;;;;;8.03;5.77;;;9.70;99.90;;;;;;4447286;28;657112;-76
2023/05/17 11:50:29;;;;;;;9.10;5.57;;;9.70;99.90;;;;;;4418748;28;656871;-74
2023/05/17 11:53:16;;;;;;;11.77;6.73;;;9.70;99.90;;;;;;4425338;28;656755;-74
2023/05/17 11:56:04;;;;;;;10.50;6.33;;;9.70;99.90;;;;;;4442936;28;658834;-75
2023/05/17 11:58:51;;;;;;;11.43;6.93;;;9.70;99.90;;;;;;4420236;28;658209;-76
2023/05/17 12:01:45;;;;;;;11.60;6.90;;;9.50;99.90;;;;;;4441713;28;657980;-74
2023/05/17 12:04:36;;;;;;;12.63;5.97;;;9.50;99.90;;;;;;4418545;28;658451;-74
2023/05/17 12:07:24;;;;;;;11.33;6.37;;;9.50;99.90;;;;;;4418626;28;658013;-75
2023/05/17 12:10:13;;;;;;;12.20;6.83;;;9.40;99.90;;;;;;4415870;28;657411;-75
2023/05/17 12:13:01;;;;;;;17.08;6.50;;;9.50;99.90;;;;;;4421916;28;657748;-74
2023/05/17 12:15:51;;;;;;;12.33;7.57;;;9.50;99.90;;;;;;4441998;28;658967;-77
2023/05/17 12:18:38;;;;;;;15.10;7.37;;;9.40;99.90;;;;;;4415374;28;658460;-73
2023/05/17 12:21:25;;;;;;;14.10;7.40;;;9.40;99.90;;;;;;4423836;28;657631;-75
2023/05/17 12:24:14;;;;;;;12.93;7.13;;;9.40;99.90;;;;;;4436600;28;658517;-77
2023/05/17 12:27:01;;;;;;;11.73;7.00;;;9.40;99.90;;;;;;4417796;28;657670;-77
2023/05/17 12:29:49;;;;;;;14.60;7.60;;;9.20;99.90;;;;;;4439943;28;658076;-76
2023/05/17 12:32:36;;;;;;;13.63;7.63;;;9.10;99.90;;;;;;4419535;28;658169;-76
2023/05/17 12:35:23;;;;;;;14.00;7.23;;;9.10;99.90;;;;;;4445657;28;659629;-75
2023/05/17 12:38:10;;;;;;;17.77;8.30;;;9.20;99.90;;;;;;4423020;28;657674;-73
2023/05/17 12:41:00;;;;;;;16.50;8.03;;;9.20;99.90;;;;;;4442321;28;658207;-77
2023/05/17 12:43:47;;;;;;;16.57;8.10;;;9.20;99.90;;;;;;4416363;28;658017;-77
2023/05/17 12:46:35;;;;;;;17.20;7.93;;;9.20;99.90;;;;;;4440622;28;658190;-75
2023/05/17 12:49:22;;;;;;;18.30;8.17;;;9.20;99.90;;;;;;4422668;28;658611;-75
2023/05/17 12:52:10;;;;;;;15.73;7.63;;;9.20;99.90;;;;;;4437308;28;658112;-76
2023/05/17 12:54:59;;;;;;;15.53;7.83;;;9.20;99.90;;;;;;4418701;28;658579;-76
2023/05/17 12:57:51;;;;;;;18.10;8.23;;;9.20;99.90;;;;;;4416178;28;658417;-75
2023/05/17 13:00:38;;;;;;;13.17;7.50;;;9.30;99.90;;;;;;4413676;28;658022;-75
2023/05/17 13:03:26;;;;;;;15.67;8.40;;;9.20;99.90;;;;;;4426744;28;657338;-74
2023/05/17 13:06:13;;;;;;;20.27;7.90;;;9.10;99.90;;;;;;4445749;28;659223;-76
2023/05/17 13:09:00;;;;;;;17.00;8.20;;;9.10;99.90;;;;;;4425540;28;657446;-72
2023/05/17 13:11:50;;;;;;;20.47;8.17;;;9.10;99.90;;;;;;4444789;28;657815;-76
2023/05/17 13:14:40;;;;;;;17.47;8.53;;;9.20;99.90;;;;;;4418310;28;659321;-75
2023/05/17 13:17:33;;;;;;;19.13;8.63;;;9.20;99.90;;;;;;4419961;28;658676;-75
2023/05/17 13:20:21;;;;;;;17.77;8.98;;;9.20;99.90;;;;;;4402201;28;657874;-75
2023/05/17 13:23:09;;;;;;;18.40;8.70;;;9.20;99.90;;;;;;4445411;28;659057;-77
2023/05/17 13:25:56;;;;;;;14.87;8.60;;;9.30;99.90;;;;;;4421991;28;658973;-75
2023/05/17 13:28:43;;;;;;;17.67;8.80;;;9.20;99.90;;;;;;4442969;28;658497;-76
2023/05/17 13:31:32;;;;;;;16.07;8.10;;;9.20;99.90;;;;;;4422041;28;657559;-74
2023/05/17 13:34:19;;;;;;;16.33;8.00;;;9.30;99.90;;;;;;4442506;28;657909;-76
2023/05/17 13:37:07;;;;;;;13.27;8.10;;;9.30;99.90;;;;;;4417571;28;657704;-75
2023/05/17 13:39:55;;;;;;;15.53;7.93;;;9.30;99.90;;;;;;4437219;28;658085;-76
2023/05/17 13:42:42;;;;;;;12.90;7.67;;;9.30;99.90;;;;;;4424467;28;658758;-75
2023/05/17 13:45:29;;;;;;;12.45;7.53;;;9.20;99.90;;;;;;4443800;28;658358;-75
2023/05/17 13:48:18;;;;;;;14.53;7.80;;;9.00;99.90;;;;;;4418904;28;658008;-75
2023/05/17 13:51:06;;;;;;;16.00;8.13;;;9.10;99.90;;;;;;4423497;28;657774;-73
2023/05/17 13:53:53;;;;;;;17.42;7.95;;;9.20;99.90;;;;;;4442830;28;658913;-76
2023/05/17 13:56:40;;;;;;;15.27;7.67;;;9.20;99.90;;;;;;4423878;28;657850;-74
2023/05/17 13:59:28;;;;;;;13.27;7.47;;;9.20;99.90;;;;;;4438520;28;658225;-76
2023/05/17 14:02:15;;;;;;;14.17;8.00;;;9.20;99.90;;;;;;4439160;28;657754;-73
2023/05/17 14:05:06;;;;;;;13.50;7.97;;;9.10;99.90;;;;;;4444906;28;658456;-75
2023/05/17 14:07:53;;;;;;;12.10;7.30;;;9.10;99.90;;;;;;4412244;28;658674;-75
2023/05/17 14:10:40;;;;;;;20.13;8.15;;;9.00;99.90;;;;;;4428777;28;658442;-73
2023/05/17 14:13:27;;;;;;;13.57;8.23;;;8.80;99.90;;;;;;4440420;28;658745;-75
2023/05/17 14:16:15;;;;;;;14.37;7.73;;;8.90;99.90;;;;;;4435124;28;657177;-73
2023/05/17 14:19:02;;;;;;;12.70;7.90;;;8.90;99.90;;;;;;4449366;28;658034;-75
2023/05/17 14:21:51;;;;;;;13.93;8.27;;;9.00;99.90;;;;;;4439449;28;658006;-75